sensor_id;sensor_type;location;lat;lon;timestamp;pressure;altitude;pressure_sealevel;temperature;humidity
40788;BME280;26497;52.494;7.546;2023-05-20T00:00:29;101888.78;;;16.73;52.73
40788;BME280;26497;52.494;7.546;2023-05-20T00:02:59;101891.53;;;16.62;52.98
40788;BME280;26497;52.494;7.546;2023-05-20T00:05:29;101893.28;;;16.66;52.85
40788;BME280;26497;52.494;7.546;2023-05-20T00:07:56;101890.63;;;16.62;53.06
40788;BME280;26497;52.494;7.546;2023-05-20T00:10:24;101890.63;;;16.66;52.84
40788;BME280;26497;52.494;7.546;2023-05-20T00:12:53;101889.81;;;16.55;52.96
40788;BME280;26497;52.494;7.546;2023-05-20T00:15:21;101888.00;;;16.57;53.15
40788;BME280;26497;52.494;7.546;2023-05-20T00:17:48;101889.81;;;16.55;52.93
40788;BME280;26497;52.494;7.546;2023-05-20T00:20:16;101890.72;;;16.49;53.38
40788;BME280;26497;52.494;7.546;2023-05-20T00:22:43;101889.81;;;16.52;53.09
40788;BME280;26497;52.494;7.546;2023-05-20T00:25:10;101888.13;;;16.40;53.60
40788;BME280;26497;52.494;7.546;2023-05-20T00:27:39;101891.66;;;16.45;53.37
40788;BME280;26497;52.494;7.546;2023-05-20T00:30:08;101898.72;;;16.53;53.17
40788;BME280;26497;52.494;7.546;2023-05-20T00:32:37;101896.06;;;16.46;53.28
40788;BME280;26497;52.494;7.546;2023-05-20T00:35:05;101888.94;;;16.51;53.25
40788;BME280;26497;52.494;7.546;2023-05-20T00:37:32;101886.25;;;16.53;53.17
40788;BME280;26497;52.494;7.546;2023-05-20T00:40:00;101891.63;;;16.44;53.44
40788;BME280;26497;52.494;7.546;2023-05-20T00:42:28;101886.25;;;16.53;53.00
40788;BME280;26497;52.494;7.546;2023-05-20T00:44:55;101879.09;;;16.63;52.97
40788;BME280;26497;52.494;7.546;2023-05-20T00:47:27;101872.97;;;16.55;53.22
40788;BME280;26497;52.494;7.546;2023-05-20T00:49:57;101875.63;;;16.53;53.22
40788;BME280;26497;52.494;7.546;2023-05-20T00:52:24;101872.91;;;16.58;53.07
40788;BME280;26497;52.494;7.546;2023-05-20T00:54:53;101874.69;;;16.60;52.92
40788;BME280;26497;52.494;7.546;2023-05-20T00:57:20;101880.00;;;16.63;52.60
40788;BME280;26497;52.494;7.546;2023-05-20T00:59:50;101873.91;;;16.41;53.60
40788;BME280;26497;52.494;7.546;2023-05-20T01:02:18;101869.47;;;16.39;53.60
40788;BME280;26497;52.494;7.546;2023-05-20T01:04:46;101876.59;;;16.41;53.55
40788;BME280;26497;52.494;7.546;2023-05-20T01:07:17;101872.19;;;16.34;53.74
40788;BME280;26497;52.494;7.546;2023-05-20T01:09:45;101870.44;;;16.24;54.13
40788;BME280;26497;52.494;7.546;2023-05-20T01:12:22;101880.16;;;16.34;53.93
40788;BME280;26497;52.494;7.546;2023-05-20T01:14:57;101878.41;;;16.30;54.01
40788;BME280;26497;52.494;7.546;2023-05-20T01:17:28;101873.09;;;16.30;53.85
40788;BME280;26497;52.494;7.546;2023-05-20T01:19:59;101878.44;;;16.27;54.01
40788;BME280;26497;52.494;7.546;2023-05-20T01:22:28;101871.31;;;16.32;53.94
40788;BME280;26497;52.494;7.546;2023-05-20T01:24:55;101873.97;;;16.27;53.86
40788;BME280;26497;52.494;7.546;2023-05-20T01:27:23;101874.03;;;16.19;54.20
40788;BME280;26497;52.494;7.546;2023-05-20T01:29:51;101873.13;;;16.24;54.25
40788;BME280;26497;52.494;7.546;2023-05-20T01:32:23;101874.00;;;16.21;54.04
40788;BME280;26497;52.494;7.546;2023-05-20T01:34:52;101873.19;;;16.05;54.65
40788;BME280;26497;52.494;7.546;2023-05-20T01:37:21;101874.94;;;16.04;54.73
40788;BME280;26497;52.494;7.546;2023-05-20T01:39:51;101870.56;;;15.94;55.11
40788;BME280;26497;52.494;7.546;2023-05-20T01:42:20;101880.31;;;15.84;55.49
40788;BME280;26497;52.494;7.546;2023-05-20T01:44:48;101875.03;;;15.83;55.54
40788;BME280;26497;52.494;7.546;2023-05-20T01:47:15;101873.25;;;15.78;55.74
40788;BME280;26497;52.494;7.546;2023-05-20T01:49:42;101878.56;;;15.77;55.89
40788;BME280;26497;52.494;7.546;2023-05-20T01:52:10;101867.94;;;15.75;55.72
40788;BME280;26497;52.494;7.546;2023-05-20T01:54:38;101869.72;;;15.75;55.94
40788;BME280;26497;52.494;7.546;2023-05-20T01:57:06;101870.59;;;15.75;55.83
40788;BME280;26497;52.494;7.546;2023-05-20T01:59:33;101866.16;;;15.77;55.73
40788;BME280;26497;52.494;7.546;2023-05-20T02:02:00;101872.38;;;15.72;55.92
40788;BME280;26497;52.494;7.546;2023-05-20T02:04:27;101866.16;;;15.70;55.97
40788;BME280;26497;52.494;7.546;2023-05-20T02:06:54;101865.28;;;15.71;56.02
40788;BME280;26497;52.494;7.546;2023-05-20T02:09:21;101868.81;;;15.76;55.97
40788;BME280;26497;52.494;7.546;2023-05-20T02:11:49;101871.47;;;15.73;55.94
40788;BME280;26497;52.494;7.546;2023-05-20T02:14:17;101865.31;;;15.69;55.90
40788;BME280;26497;52.494;7.546;2023-05-20T02:16:45;101867.94;;;15.75;55.65
40788;BME280;26497;52.494;7.546;2023-05-20T02:19:13;101862.66;;;15.61;55.98
40788;BME280;26497;52.494;7.546;2023-05-20T02:21:48;101867.09;;;15.53;56.57
40788;BME280;26497;52.494;7.546;2023-05-20T02:24:15;101868.91;;;15.46;56.53
40788;BME280;26497;52.494;7.546;2023-05-20T02:26:45;101865.34;;;15.44;56.91
40788;BME280;26497;52.494;7.546;2023-05-20T02:29:17;101871.53;;;15.39;57.12
40788;BME280;26497;52.494;7.546;2023-05-20T02:31:46;101858.25;;;15.45;56.81
40788;BME280;26497;52.494;7.546;2023-05-20T02:34:14;101866.22;;;15.51;56.52
40788;BME280;26497;52.494;7.546;2023-05-20T02:36:41;101860.91;;;15.45;56.81
40788;BME280;26497;52.494;7.546;2023-05-20T02:39:08;101868.00;;;15.30;57.05
40788;BME280;26497;52.494;7.546;2023-05-20T02:41:36;101868.00;;;15.33;57.05
40788;BME280;26497;52.494;7.546;2023-05-20T02:44:03;101861.78;;;15.38;57.09
40788;BME280;26497;52.494;7.546;2023-05-20T02:46:32;101866.22;;;15.39;57.01
40788;BME280;26497;52.494;7.546;2023-05-20T02:49:00;101870.66;;;15.30;57.33
40788;BME280;26497;52.494;7.546;2023-05-20T02:51:27;101868.00;;;15.30;57.26
40788;BME280;26497;52.494;7.546;2023-05-20T02:53:56;101871.56;;;15.29;57.09
40788;BME280;26497;52.494;7.546;2023-05-20T02:56:23;101865.34;;;15.24;57.18
40788;BME280;26497;52.494;7.546;2023-05-20T02:58:51;101858.31;;;15.20;57.33
40788;BME280;26497;52.494;7.546;2023-05-20T03:01:19;101866.28;;;15.11;57.48
40788;BME280;26497;52.494;7.546;2023-05-20T03:03:48;101853.84;;;15.08;57.61
40788;BME280;26497;52.494;7.546;2023-05-20T03:06:15;101850.31;;;15.09;57.58
40788;BME280;26497;52.494;7.546;2023-05-20T03:08:42;101855.63;;;15.18;57.46
40788;BME280;26497;52.494;7.546;2023-05-20T03:11:09;101854.75;;;15.09;57.84
40788;BME280;26497;52.494;7.546;2023-05-20T03:13:36;101850.31;;;15.18;57.14
40788;BME280;26497;52.494;7.546;2023-05-20T03:16:04;101855.63;;;15.15;57.39
40788;BME280;26497;52.494;7.546;2023-05-20T03:18:31;101860.97;;;15.11;57.34
40788;BME280;26497;52.494;7.546;2023-05-20T03:20:59;101858.31;;;15.11;57.35
40788;BME280;26497;52.494;7.546;2023-05-20T03:23:27;101860.06;;;15.21;56.90
40788;BME280;26497;52.494;7.546;2023-05-20T03:25:54;101850.28;;;15.26;56.52
40788;BME280;26497;52.494;7.546;2023-05-20T03:28:21;101852.97;;;15.22;56.50
40788;BME280;26497;52.494;7.546;2023-05-20T03:30:48;101868.03;;;15.15;56.81
40788;BME280;26497;52.494;7.546;2023-05-20T03:33:16;101863.59;;;15.25;56.11
40788;BME280;26497;52.494;7.546;2023-05-20T03:35:43;101855.63;;;15.28;55.95
40788;BME280;26497;52.494;7.546;2023-05-20T03:38:11;101855.63;;;15.25;56.10
40788;BME280;26497;52.494;7.546;2023-05-20T03:40:38;101860.97;;;15.23;56.07
40788;BME280;26497;52.494;7.546;2023-05-20T03:43:05;101859.16;;;15.27;55.81
40788;BME280;26497;52.494;7.546;2023-05-20T03:45:32;101855.63;;;15.22;56.04
40788;BME280;26497;52.494;7.546;2023-05-20T03:48:00;101861.84;;;15.19;56.01
40788;BME280;26497;52.494;7.546;2023-05-20T03:50:28;101864.47;;;15.25;55.81
40788;BME280;26497;52.494;7.546;2023-05-20T03:52:55;101857.38;;;15.33;55.58
40788;BME280;26497;52.494;7.546;2023-05-20T03:55:24;101857.38;;;15.30;55.37
40788;BME280;26497;52.494;7.546;2023-05-20T03:57:52;101868.91;;;15.25;55.47
40788;BME280;26497;52.494;7.546;2023-05-20T04:00:19;101864.47;;;15.25;55.37
40788;BME280;26497;52.494;7.546;2023-05-20T04:02:47;101876.88;;;15.26;55.50
40788;BME280;26497;52.494;7.546;2023-05-20T04:05:14;101869.78;;;15.33;55.18
40788;BME280;26497;52.494;7.546;2023-05-20T04:07:41;101871.56;;;15.40;54.81
40788;BME280;26497;52.494;7.546;2023-05-20T04:10:10;101869.75;;;15.41;54.45
40788;BME280;26497;52.494;7.546;2023-05-20T04:12:38;101873.31;;;15.43;54.45
40788;BME280;26497;52.494;7.546;2023-05-20T04:15:07;101874.22;;;15.46;53.98
40788;BME280;26497;52.494;7.546;2023-05-20T04:17:35;101868.88;;;15.54;53.67
40788;BME280;26497;52.494;7.546;2023-05-20T04:20:04;101868.88;;;15.56;54.06
40788;BME280;26497;52.494;7.546;2023-05-20T04:22:32;101870.63;;;15.69;54.13
40788;BME280;26497;52.494;7.546;2023-05-20T04:24:59;101867.88;;;15.97;53.17
40788;BME280;26497;52.494;7.546;2023-05-20T04:27:28;101869.56;;;16.28;52.00
40788;BME280;26497;52.494;7.546;2023-05-20T04:29:57;101880.09;;;16.46;50.13
40788;BME280;26497;52.494;7.546;2023-05-20T04:32:24;101882.81;;;16.32;50.18
40788;BME280;26497;52.494;7.546;2023-05-20T04:34:52;101877.53;;;16.31;50.17
40788;BME280;26497;52.494;7.546;2023-05-20T04:37:20;101881.97;;;16.26;50.18
40788;BME280;26497;52.494;7.546;2023-05-20T04:39:48;101873.97;;;16.24;49.99
40788;BME280;26497;52.494;7.546;2023-05-20T04:42:15;101881.13;;;16.17;49.46
40788;BME280;26497;52.494;7.546;2023-05-20T04:44:44;101881.97;;;16.24;49.47
40788;BME280;26497;52.494;7.546;2023-05-20T04:47:14;101881.13;;;16.13;49.69
40788;BME280;26497;52.494;7.546;2023-05-20T04:49:44;101884.63;;;16.32;49.32
40788;BME280;26497;52.494;7.546;2023-05-20T04:52:11;101886.31;;;16.45;48.96
40788;BME280;26497;52.494;7.546;2023-05-20T04:54:38;101882.72;;;16.54;48.80
40788;BME280;26497;52.494;7.546;2023-05-20T04:57:05;101883.41;;;16.84;47.86
40788;BME280;26497;52.494;7.546;2023-05-20T04:59:32;101882.28;;;17.18;46.91
40788;BME280;26497;52.494;7.546;2023-05-20T05:01:59;101882.84;;;17.52;46.30
40788;BME280;26497;52.494;7.546;2023-05-20T05:04:28;101883.59;;;17.68;45.47
40788;BME280;26497;52.494;7.546;2023-05-20T05:06:55;101875.19;;;18.03;44.35
40788;BME280;26497;52.494;7.546;2023-05-20T05:09:22;101873.78;;;18.44;43.72
40788;BME280;26497;52.494;7.546;2023-05-20T05:11:54;101877.84;;;18.70;42.53
40788;BME280;26497;52.494;7.546;2023-05-20T05:14:24;101873.84;;;19.00;42.10
40788;BME280;26497;52.494;7.546;2023-05-20T05:16:51;101871.69;;;19.23;41.42
40788;BME280;26497;52.494;7.546;2023-05-20T05:19:18;101870.69;;;19.28;40.93
40788;BME280;26497;52.494;7.546;2023-05-20T05:21:48;101872.25;;;19.40;40.47
40788;BME280;26497;52.494;7.546;2023-05-20T05:24:16;101866.50;;;19.62;39.70
40788;BME280;26497;52.494;7.546;2023-05-20T05:26:43;101863.41;;;19.84;39.28
40788;BME280;26497;52.494;7.546;2023-05-20T05:29:10;101866.81;;;19.94;38.46
40788;BME280;26497;52.494;7.546;2023-05-20T05:31:37;101862.16;;;20.02;38.41
40788;BME280;26497;52.494;7.546;2023-05-20T05:34:04;101869.69;;;20.27;37.94
40788;BME280;26497;52.494;7.546;2023-05-20T05:36:32;101863.75;;;20.53;37.80
40788;BME280;26497;52.494;7.546;2023-05-20T05:39:01;101865.50;;;20.94;37.01
40788;BME280;26497;52.494;7.546;2023-05-20T05:41:28;101862.75;;;21.66;36.31
40788;BME280;26497;52.494;7.546;2023-05-20T05:43:56;101868.16;;;22.26;34.85
40788;BME280;26497;52.494;7.546;2023-05-20T05:46:24;101854.13;;;22.75;33.82
40788;BME280;26497;52.494;7.546;2023-05-20T05:48:51;101867.31;;;23.09;33.31
40788;BME280;26497;52.494;7.546;2023-05-20T05:51:18;101849.13;;;23.68;32.37
40788;BME280;26497;52.494;7.546;2023-05-20T05:53:45;101860.94;;;24.13;31.33
40788;BME280;26497;52.494;7.546;2023-05-20T05:56:14;101859.50;;;24.51;30.37
40788;BME280;26497;52.494;7.546;2023-05-20T05:58:41;101846.50;;;25.05;30.19
40788;BME280;26497;52.494;7.546;2023-05-20T06:01:08;101840.69;;;25.56;28.62
40788;BME280;26497;52.494;7.546;2023-05-20T06:03:36;101844.81;;;26.24;28.72
40788;BME280;26497;52.494;7.546;2023-05-20T06:06:03;101839.44;;;26.78;27.45
40788;BME280;26497;52.494;7.546;2023-05-20T06:08:30;101851.44;;;26.91;27.59
40788;BME280;26497;52.494;7.546;2023-05-20T06:10:58;101845.84;;;27.47;26.92
40788;BME280;26497;52.494;7.546;2023-05-20T06:13:26;101856.13;;;27.92;25.95
40788;BME280;26497;52.494;7.546;2023-05-20T06:15:53;101847.72;;;28.14;25.98
40788;BME280;26497;52.494;7.546;2023-05-20T06:18:20;101847.63;;;28.48;25.30
40788;BME280;26497;52.494;7.546;2023-05-20T06:20:55;101843.94;;;28.49;25.30
40788;BME280;26497;52.494;7.546;2023-05-20T06:23:22;101856.94;;;28.74;25.36
40788;BME280;26497;52.494;7.546;2023-05-20T06:25:50;101847.31;;;29.46;24.81
40788;BME280;26497;52.494;7.546;2023-05-20T06:28:17;101847.69;;;29.83;24.44
40788;BME280;26497;52.494;7.546;2023-05-20T06:30:46;101845.16;;;30.23;23.94
40788;BME280;26497;52.494;7.546;2023-05-20T06:33:13;101841.00;;;30.18;23.07
40788;BME280;26497;52.494;7.546;2023-05-20T06:35:42;101837.00;;;30.23;23.70
40788;BME280;26497;52.494;7.546;2023-05-20T06:38:10;101829.59;;;30.53;23.39
40788;BME280;26497;52.494;7.546;2023-05-20T06:40:37;101832.19;;;30.41;23.11
40788;BME280;26497;52.494;7.546;2023-05-20T06:43:05;101825.00;;;30.40;23.27
40788;BME280;26497;52.494;7.546;2023-05-20T06:45:32;101819.03;;;30.63;23.69
40788;BME280;26497;52.494;7.546;2023-05-20T06:48:00;101818.25;;;31.01;23.10
40788;BME280;26497;52.494;7.546;2023-05-20T06:50:28;101818.69;;;31.21;22.74
40788;BME280;26497;52.494;7.546;2023-05-20T06:52:55;101817.97;;;31.57;22.06
40788;BME280;26497;52.494;7.546;2023-05-20T06:55:22;101821.31;;;31.61;22.90
40788;BME280;26497;52.494;7.546;2023-05-20T06:57:49;101816.31;;;31.81;22.12
40788;BME280;26497;52.494;7.546;2023-05-20T07:00:17;101803.88;;;31.63;21.84
40788;BME280;26497;52.494;7.546;2023-05-20T07:02:44;101807.38;;;31.27;21.64
40788;BME280;26497;52.494;7.546;2023-05-20T07:05:13;101798.38;;;30.86;22.63
40788;BME280;26497;52.494;7.546;2023-05-20T07:07:40;101790.66;;;31.06;22.46
40788;BME280;26497;52.494;7.546;2023-05-20T07:10:08;101799.94;;;31.16;22.52
40788;BME280;26497;52.494;7.546;2023-05-20T07:12:35;101793.97;;;31.50;22.51
40788;BME280;26497;52.494;7.546;2023-05-20T07:15:03;101791.66;;;31.82;22.47
40788;BME280;26497;52.494;7.546;2023-05-20T07:17:30;101796.69;;;31.75;22.16
40788;BME280;26497;52.494;7.546;2023-05-20T07:19:58;101790.13;;;31.91;21.59
40788;BME280;26497;52.494;7.546;2023-05-20T07:22:26;101797.47;;;32.15;21.43
40788;BME280;26497;52.494;7.546;2023-05-20T07:24:53;101796.84;;;31.98;21.70
40788;BME280;26497;52.494;7.546;2023-05-20T07:27:20;101792.63;;;31.94;21.99
40788;BME280;26497;52.494;7.546;2023-05-20T07:29:48;101794.44;;;32.06;21.88
40788;BME280;26497;52.494;7.546;2023-05-20T07:32:17;101799.31;;;32.14;22.19
40788;BME280;26497;52.494;7.546;2023-05-20T07:34:44;101800.50;;;31.86;20.88
40788;BME280;26497;52.494;7.546;2023-05-20T07:37:13;101790.91;;;31.80;22.33
40788;BME280;26497;52.494;7.546;2023-05-20T07:39:42;101791.25;;;31.24;22.10
40788;BME280;26497;52.494;7.546;2023-05-20T07:42:09;101790.75;;;30.91;22.75
40788;BME280;26497;52.494;7.546;2023-05-20T07:44:36;101793.69;;;30.48;23.00
40788;BME280;26497;52.494;7.546;2023-05-20T07:47:04;101793.63;;;29.78;24.29
40788;BME280;26497;52.494;7.546;2023-05-20T07:49:32;101784.88;;;29.29;24.81
40788;BME280;26497;52.494;7.546;2023-05-20T07:51:59;101779.47;;;29.73;24.35
40788;BME280;26497;52.494;7.546;2023-05-20T07:54:26;101779.91;;;30.09;23.50
40788;BME280;26497;52.494;7.546;2023-05-20T07:56:57;101782.25;;;30.83;22.70
40788;BME280;26497;52.494;7.546;2023-05-20T07:59:25;101784.25;;;31.07;21.75
40788;BME280;26497;52.494;7.546;2023-05-20T08:01:52;101764.56;;;31.42;21.83
40788;BME280;26497;52.494;7.546;2023-05-20T08:04:19;101774.34;;;31.44;21.37
40788;BME280;26497;52.494;7.546;2023-05-20T08:06:46;101772.56;;;31.69;21.29
40788;BME280;26497;52.494;7.546;2023-05-20T08:09:13;101769.53;;;32.11;21.65
40788;BME280;26497;52.494;7.546;2023-05-20T08:11:40;101779.97;;;32.17;21.57
40788;BME280;26497;52.494;7.546;2023-05-20T08:14:09;101764.28;;;32.08;21.27
40788;BME280;26497;52.494;7.546;2023-05-20T08:16:36;101763.59;;;31.93;21.39
40788;BME280;26497;52.494;7.546;2023-05-20T08:19:03;101759.72;;;32.09;21.17
40788;BME280;26497;52.494;7.546;2023-05-20T08:21:30;101757.53;;;32.14;21.68
40788;BME280;26497;52.494;7.546;2023-05-20T08:23:58;101758.44;;;32.50;21.15
40788;BME280;26497;52.494;7.546;2023-05-20T08:26:25;101767.31;;;32.29;20.80
40788;BME280;26497;52.494;7.546;2023-05-20T08:28:52;101752.91;;;31.90;21.13
40788;BME280;26497;52.494;7.546;2023-05-20T08:31:21;101757.78;;;31.98;22.05
40788;BME280;26497;52.494;7.546;2023-05-20T08:33:48;101756.97;;;31.84;21.41
40788;BME280;26497;52.494;7.546;2023-05-20T08:36:15;101763.22;;;31.73;21.95
40788;BME280;26497;52.494;7.546;2023-05-20T08:38:44;101749.59;;;31.73;21.45
40788;BME280;26497;52.494;7.546;2023-05-20T08:41:11;101755.91;;;31.61;21.96
40788;BME280;26497;52.494;7.546;2023-05-20T08:43:38;101744.97;;;31.87;21.77
40788;BME280;26497;52.494;7.546;2023-05-20T08:46:05;101750.00;;;31.67;20.82
40788;BME280;26497;52.494;7.546;2023-05-20T08:48:35;101742.91;;;31.77;22.20
40788;BME280;26497;52.494;7.546;2023-05-20T08:51:03;101744.06;;;31.99;22.44
40788;BME280;26497;52.494;7.546;2023-05-20T08:53:34;101739.13;;;32.04;21.25
40788;BME280;26497;52.494;7.546;2023-05-20T08:56:01;101741.38;;;32.11;21.34
40788;BME280;26497;52.494;7.546;2023-05-20T08:58:29;101740.81;;;31.81;21.03
40788;BME280;26497;52.494;7.546;2023-05-20T09:00:57;101744.81;;;32.01;20.81
40788;BME280;26497;52.494;7.546;2023-05-20T09:03:24;101744.63;;;32.16;21.02
40788;BME280;26497;52.494;7.546;2023-05-20T09:06:03;101750.59;;;31.97;20.33
40788;BME280;26497;52.494;7.546;2023-05-20T09:08:31;101740.13;;;31.90;21.95
40788;BME280;26497;52.494;7.546;2023-05-20T09:10:59;101754.13;;;32.10;21.69
40788;BME280;26497;52.494;7.546;2023-05-20T09:13:29;101728.50;;;32.73;20.92
40788;BME280;26497;52.494;7.546;2023-05-20T09:15:59;101731.41;;;33.85;19.87
40788;BME280;26497;52.494;7.546;2023-05-20T09:18:26;101720.03;;;34.13;19.77
40788;BME280;26497;52.494;7.546;2023-05-20T09:21:03;101727.91;;;34.06;20.14
40788;BME280;26497;52.494;7.546;2023-05-20T09:23:30;101737.41;;;32.99;20.42
40788;BME280;26497;52.494;7.546;2023-05-20T09:26:00;101731.19;;;31.51;21.48
40788;BME280;26497;52.494;7.546;2023-05-20T09:28:28;101729.44;;;30.85;21.82
40788;BME280;26497;52.494;7.546;2023-05-20T09:30:58;101727.81;;;30.96;21.89
40788;BME280;26497;52.494;7.546;2023-05-20T09:33:27;101726.00;;;31.72;21.64
40788;BME280;26497;52.494;7.546;2023-05-20T09:36:03;101728.47;;;31.38;21.68
40788;BME280;26497;52.494;7.546;2023-05-20T09:38:35;101719.97;;;30.78;22.93
40788;BME280;26497;52.494;7.546;2023-05-20T09:41:06;101722.31;;;30.16;23.17
40788;BME280;26497;52.494;7.546;2023-05-20T09:43:34;101721.72;;;29.11;24.53
40788;BME280;26497;52.494;7.546;2023-05-20T09:46:03;101723.72;;;28.48;25.90
40788;BME280;26497;52.494;7.546;2023-05-20T09:48:31;101718.53;;;28.13;26.25
40788;BME280;26497;52.494;7.546;2023-05-20T09:50:59;101715.53;;;27.86;26.55
40788;BME280;26497;52.494;7.546;2023-05-20T09:53:28;101705.06;;;27.95;26.20
40788;BME280;26497;52.494;7.546;2023-05-20T09:55:57;101710.56;;;28.87;25.53
40788;BME280;26497;52.494;7.546;2023-05-20T09:58:24;101698.88;;;30.14;24.78
40788;BME280;26497;52.494;7.546;2023-05-20T10:00:51;101698.09;;;31.82;23.03
40788;BME280;26497;52.494;7.546;2023-05-20T10:03:21;101691.31;;;32.47;21.97
40788;BME280;26497;52.494;7.546;2023-05-20T10:06:01;101694.19;;;33.16;21.41
40788;BME280;26497;52.494;7.546;2023-05-20T10:08:48;101695.00;;;31.86;21.62
40788;BME280;26497;52.494;7.546;2023-05-20T10:11:28;101699.16;;;30.77;22.27
40788;BME280;26497;52.494;7.546;2023-05-20T10:14:31;101709.00;;;29.70;22.94
40788;BME280;26497;52.494;7.546;2023-05-20T10:17:06;101701.38;;;29.33;24.09
40788;BME280;26497;52.494;7.546;2023-05-20T10:19:37;101695.22;;;28.41;24.75
40788;BME280;26497;52.494;7.546;2023-05-20T10:22:06;101699.72;;;29.02;25.20
40788;BME280;26497;52.494;7.546;2023-05-20T10:24:37;101690.16;;;30.36;24.25
40788;BME280;26497;52.494;7.546;2023-05-20T10:27:09;101680.63;;;32.09;22.90
40788;BME280;26497;52.494;7.546;2023-05-20T10:29:44;101673.91;;;32.84;21.61
40788;BME280;26497;52.494;7.546;2023-05-20T10:32:23;101675.69;;;32.97;20.32
40788;BME280;26497;52.494;7.546;2023-05-20T10:34:51;101672.78;;;33.66;20.25
40788;BME280;26497;52.494;7.546;2023-05-20T10:37:26;101665.91;;;34.49;20.14
40788;BME280;26497;52.494;7.546;2023-05-20T10:40:06;101665.69;;;35.14;19.45
40788;BME280;26497;52.494;7.546;2023-05-20T10:42:33;101665.84;;;35.22;18.26
40788;BME280;26497;52.494;7.546;2023-05-20T10:45:01;101661.97;;;34.94;18.25
40788;BME280;26497;52.494;7.546;2023-05-20T10:47:29;101651.19;;;34.29;18.51
40788;BME280;26497;52.494;7.546;2023-05-20T10:49:56;101650.59;;;32.91;19.83
40788;BME280;26497;52.494;7.546;2023-05-20T10:52:24;101656.88;;;32.22;21.49
40788;BME280;26497;52.494;7.546;2023-05-20T10:54:56;101652.50;;;32.19;21.55
40788;BME280;26497;52.494;7.546;2023-05-20T10:57:26;101656.69;;;33.06;19.59
40788;BME280;26497;52.494;7.546;2023-05-20T10:59:54;101651.56;;;34.24;19.97
40788;BME280;26497;52.494;7.546;2023-05-20T11:02:22;101640.63;;;35.19;18.94
40788;BME280;26497;52.494;7.546;2023-05-20T11:04:51;101643.75;;;35.14;19.65
40788;BME280;26497;52.494;7.546;2023-05-20T11:07:27;101643.31;;;34.78;19.86
40788;BME280;26497;52.494;7.546;2023-05-20T11:09:55;101636.78;;;33.38;20.07
40788;BME280;26497;52.494;7.546;2023-05-20T11:12:26;101634.63;;;31.80;21.66
40788;BME280;26497;52.494;7.546;2023-05-20T11:14:54;101634.09;;;31.37;22.47
40788;BME280;26497;52.494;7.546;2023-05-20T11:17:21;101626.34;;;32.17;21.43
40788;BME280;26497;52.494;7.546;2023-05-20T11:19:49;101625.91;;;33.04;21.35
40788;BME280;26497;52.494;7.546;2023-05-20T11:22:16;101631.22;;;33.84;20.20
40788;BME280;26497;52.494;7.546;2023-05-20T11:24:45;101626.59;;;33.96;18.66
40788;BME280;26497;52.494;7.546;2023-05-20T11:27:12;101613.59;;;32.99;19.48
40788;BME280;26497;52.494;7.546;2023-05-20T11:29:40;101608.09;;;32.64;20.95
40788;BME280;26497;52.494;7.546;2023-05-20T11:32:08;101610.63;;;32.90;19.55
40788;BME280;26497;52.494;7.546;2023-05-20T11:34:36;101613.19;;;32.69;20.46
40788;BME280;26497;52.494;7.546;2023-05-20T11:37:06;101608.59;;;32.81;21.80
40788;BME280;26497;52.494;7.546;2023-05-20T11:39:34;101612.34;;;33.03;20.66
40788;BME280;26497;52.494;7.546;2023-05-20T11:42:02;101617.38;;;33.97;21.12
40788;BME280;26497;52.494;7.546;2023-05-20T11:44:30;101605.78;;;34.05;18.90
40788;BME280;26497;52.494;7.546;2023-05-20T11:47:01;101598.03;;;34.31;19.18
40788;BME280;26497;52.494;7.546;2023-05-20T11:49:29;101590.00;;;34.82;17.90
40788;BME280;26497;52.494;7.546;2023-05-20T11:51:56;101601.94;;;34.50;20.61
40788;BME280;26497;52.494;7.546;2023-05-20T11:54:24;101604.41;;;34.84;18.39
40788;BME280;26497;52.494;7.546;2023-05-20T11:56:53;101576.41;;;35.02;18.33
40788;BME280;26497;52.494;7.546;2023-05-20T11:59:23;101583.63;;;34.29;19.16
40788;BME280;26497;52.494;7.546;2023-05-20T12:01:50;101579.69;;;34.74;19.70
40788;BME280;26497;52.494;7.546;2023-05-20T12:04:19;101586.31;;;33.87;18.86
40788;BME280;26497;52.494;7.546;2023-05-20T12:06:46;101578.69;;;32.57;20.07
40788;BME280;26497;52.494;7.546;2023-05-20T12:09:13;101587.03;;;32.19;20.52
40788;BME280;26497;52.494;7.546;2023-05-20T12:11:41;101581.31;;;32.22;21.11
40788;BME280;26497;52.494;7.546;2023-05-20T12:14:10;101583.75;;;32.50;22.06
40788;BME280;26497;52.494;7.546;2023-05-20T12:16:37;101586.28;;;32.87;20.20
40788;BME280;26497;52.494;7.546;2023-05-20T12:19:04;101584.00;;;32.58;21.38
40788;BME280;26497;52.494;7.546;2023-05-20T12:21:34;101588.16;;;32.87;20.77
40788;BME280;26497;52.494;7.546;2023-05-20T12:24:02;101587.75;;;34.02;20.87
40788;BME280;26497;52.494;7.546;2023-05-20T12:26:31;101587.13;;;35.34;19.28
40788;BME280;26497;52.494;7.546;2023-05-20T12:29:00;101571.53;;;34.84;18.83
40788;BME280;26497;52.494;7.546;2023-05-20T12:31:27;101580.63;;;34.84;18.65
40788;BME280;26497;52.494;7.546;2023-05-20T12:33:54;101580.50;;;34.55;18.89
40788;BME280;26497;52.494;7.546;2023-05-20T12:36:21;101571.00;;;34.90;19.95
40788;BME280;26497;52.494;7.546;2023-05-20T12:38:49;101576.41;;;35.02;18.40
40788;BME280;26497;52.494;7.546;2023-05-20T12:41:16;101572.69;;;34.29;19.64
40788;BME280;26497;52.494;7.546;2023-05-20T12:43:43;101564.41;;;34.19;19.26
40788;BME280;26497;52.494;7.546;2023-05-20T12:46:11;101558.66;;;35.06;18.78
40788;BME280;26497;52.494;7.546;2023-05-20T12:48:38;101551.78;;;35.41;18.80
40788;BME280;26497;52.494;7.546;2023-05-20T12:51:05;101558.03;;;35.63;19.12
40788;BME280;26497;52.494;7.546;2023-05-20T12:53:32;101553.78;;;36.37;17.67
40788;BME280;26497;52.494;7.546;2023-05-20T12:56:01;101558.78;;;36.89;17.62